sensor_id;sensor_type;location;lat;lon;timestamp;temperature;humidity
54938;DHT22;52756;52.826;6.214;2023-05-10T00:02:06;15.50;80.80
54938;DHT22;52756;52.826;6.214;2023-05-10T00:04:32;15.40;80.80
54938;DHT22;52756;52.826;6.214;2023-05-10T00:06:58;15.40;80.90
54938;DHT22;52756;52.826;6.214;2023-05-10T00:09:24;15.40;80.90
54938;DHT22;52756;52.826;6.214;2023-05-10T00:11:50;15.40;81.00
54938;DHT22;52756;52.826;6.214;2023-05-10T00:14:16;15.40;81.00
54938;DHT22;52756;52.826;6.214;2023-05-10T00:16:41;15.40;81.00
54938;DHT22;52756;52.826;6.214;2023-05-10T00:19:07;15.30;81.00
54938;DHT22;52756;52.826;6.214;2023-05-10T00:21:33;15.30;81.00
54938;DHT22;52756;52.826;6.214;2023-05-10T00:23:59;15.40;81.00
54938;DHT22;52756;52.826;6.214;2023-05-10T00:26:25;15.30;81.00
54938;DHT22;52756;52.826;6.214;2023-05-10T00:28:51;15.30;81.00
54938;DHT22;52756;52.826;6.214;2023-05-10T00:31:16;15.30;81.00
54938;DHT22;52756;52.826;6.214;2023-05-10T00:33:42;15.30;80.90
54938;DHT22;52756;52.826;6.214;2023-05-10T00:36:08;15.30;80.90
54938;DHT22;52756;52.826;6.214;2023-05-10T00:38:34;15.30;80.90
54938;DHT22;52756;52.826;6.214;2023-05-10T00:40:59;15.30;80.90
54938;DHT22;52756;52.826;6.214;2023-05-10T00:43:25;15.30;80.90
54938;DHT22;52756;52.826;6.214;2023-05-10T00:45:51;15.30;80.90
54938;DHT22;52756;52.826;6.214;2023-05-10T00:48:18;15.30;80.90
54938;DHT22;52756;52.826;6.214;2023-05-10T00:50:44;15.30;80.80
54938;DHT22;52756;52.826;6.214;2023-05-10T00:53:10;15.30;80.80
54938;DHT22;52756;52.826;6.214;2023-05-10T00:55:36;15.20;80.70
54938;DHT22;52756;52.826;6.214;2023-05-10T00:58:02;15.20;80.70
54938;DHT22;52756;52.826;6.214;2023-05-10T01:00:28;15.20;80.70
54938;DHT22;52756;52.826;6.214;2023-05-10T01:02:55;15.20;80.70
54938;DHT22;52756;52.826;6.214;2023-05-10T01:05:21;15.20;80.60
54938;DHT22;52756;52.826;6.214;2023-05-10T01:07:46;15.30;80.70
54938;DHT22;52756;52.826;6.214;2023-05-10T01:10:12;15.20;80.60
54938;DHT22;52756;52.826;6.214;2023-05-10T01:12:40;15.20;80.70
54938;DHT22;52756;52.826;6.214;2023-05-10T01:15:11;15.20;80.70
54938;DHT22;52756;52.826;6.214;2023-05-10T01:17:38;15.20;80.70
54938;DHT22;52756;52.826;6.214;2023-05-10T01:20:06;15.20;80.60
54938;DHT22;52756;52.826;6.214;2023-05-10T01:31:51;15.20;80.40
54938;DHT22;52756;52.826;6.214;2023-05-10T01:34:25;15.10;80.40
54938;DHT22;52756;52.826;6.214;2023-05-10T01:37:04;15.10;80.50
54938;DHT22;52756;52.826;6.214;2023-05-10T01:39:54;15.10;80.60
54938;DHT22;52756;52.826;6.214;2023-05-10T01:42:23;15.10;80.40
54938;DHT22;52756;52.826;6.214;2023-05-10T01:47:42;15.10;80.60
54938;DHT22;52756;52.826;6.214;2023-05-10T01:50:15;15.10;80.50
54938;DHT22;52756;52.826;6.214;2023-05-10T01:52:42;15.10;80.50
54938;DHT22;52756;52.826;6.214;2023-05-10T01:55:14;15.10;80.50
54938;DHT22;52756;52.826;6.214;2023-05-10T01:57:44;15.10;80.50
54938;DHT22;52756;52.826;6.214;2023-05-10T02:00:12;15.10;80.40
54938;DHT22;52756;52.826;6.214;2023-05-10T02:02:40;15.10;80.50
54938;DHT22;52756;52.826;6.214;2023-05-10T02:05:08;15.10;80.50
54938;DHT22;52756;52.826;6.214;2023-05-10T02:07:36;15.10;80.40
54938;DHT22;52756;52.826;6.214;2023-05-10T02:10:06;15.10;80.40
54938;DHT22;52756;52.826;6.214;2023-05-10T02:12:41;15.10;80.40
54938;DHT22;52756;52.826;6.214;2023-05-10T02:15:07;15.10;80.30
54938;DHT22;52756;52.826;6.214;2023-05-10T02:17:35;15.00;80.00
54938;DHT22;52756;52.826;6.214;2023-05-10T02:20:03;15.00;80.30
54938;DHT22;52756;52.826;6.214;2023-05-10T02:22:31;15.00;80.20
54938;DHT22;52756;52.826;6.214;2023-05-10T02:24:59;15.00;80.20
54938;DHT22;52756;52.826;6.214;2023-05-10T02:27:27;15.00;80.20
54938;DHT22;52756;52.826;6.214;2023-05-10T02:29:53;15.00;80.20
54938;DHT22;52756;52.826;6.214;2023-05-10T02:32:21;15.00;80.20
54938;DHT22;52756;52.826;6.214;2023-05-10T02:34:48;15.00;80.20
54938;DHT22;52756;52.826;6.214;2023-05-10T02:37:19;15.00;80.30
54938;DHT22;52756;52.826;6.214;2023-05-10T02:39:50;15.00;80.30
54938;DHT22;52756;52.826;6.214;2023-05-10T02:42:20;15.00;80.30
54938;DHT22;52756;52.826;6.214;2023-05-10T02:44:51;14.90;80.20
54938;DHT22;52756;52.826;6.214;2023-05-10T02:47:18;14.90;80.20
54938;DHT22;52756;52.826;6.214;2023-05-10T02:49:45;14.90;80.20
54938;DHT22;52756;52.826;6.214;2023-05-10T02:52:12;14.90;80.20
54938;DHT22;52756;52.826;6.214;2023-05-10T02:54:44;14.90;80.30
54938;DHT22;52756;52.826;6.214;2023-05-10T02:57:15;14.90;80.30
54938;DHT22;52756;52.826;6.214;2023-05-10T02:59:41;14.90;80.30
54938;DHT22;52756;52.826;6.214;2023-05-10T03:02:09;14.90;80.30
54938;DHT22;52756;52.826;6.214;2023-05-10T03:04:35;14.90;80.30
54938;DHT22;52756;52.826;6.214;2023-05-10T03:07:01;14.90;80.30
54938;DHT22;52756;52.826;6.214;2023-05-10T03:09:26;14.90;80.30
54938;DHT22;52756;52.826;6.214;2023-05-10T03:12:04;14.90;80.30
54938;DHT22;52756;52.826;6.214;2023-05-10T03:17:29;14.90;80.30
54938;DHT22;52756;52.826;6.214;2023-05-10T03:19:57;14.80;80.30
54938;DHT22;52756;52.826;6.214;2023-05-10T03:22:30;14.80;80.30
54938;DHT22;52756;52.826;6.214;2023-05-10T03:24:57;14.80;80.30
54938;DHT22;52756;52.826;6.214;2023-05-10T03:27:26;14.80;80.40
54938;DHT22;52756;52.826;6.214;2023-05-10T03:29:53;14.80;80.40
54938;DHT22;52756;52.826;6.214;2023-05-10T03:32:20;14.80;80.40
54938;DHT22;52756;52.826;6.214;2023-05-10T03:34:45;14.80;80.40
54938;DHT22;52756;52.826;6.214;2023-05-10T03:37:11;14.80;80.50
54938;DHT22;52756;52.826;6.214;2023-05-10T03:39:37;14.80;80.50
54938;DHT22;52756;52.826;6.214;2023-05-10T03:42:03;14.80;80.50
54938;DHT22;52756;52.826;6.214;2023-05-10T03:44:28;14.80;80.50
54938;DHT22;52756;52.826;6.214;2023-05-10T03:46:54;14.80;80.60
54938;DHT22;52756;52.826;6.214;2023-05-10T03:49:20;14.70;80.60
54938;DHT22;52756;52.826;6.214;2023-05-10T03:51:46;14.70;80.60
54938;DHT22;52756;52.826;6.214;2023-05-10T03:54:12;14.80;80.70
54938;DHT22;52756;52.826;6.214;2023-05-10T03:56:37;14.70;81.10
54938;DHT22;52756;52.826;6.214;2023-05-10T03:59:03;14.70;80.70
54938;DHT22;52756;52.826;6.214;2023-05-10T04:01:33;14.70;80.80
54938;DHT22;52756;52.826;6.214;2023-05-10T04:03:59;14.70;81.30
54938;DHT22;52756;52.826;6.214;2023-05-10T04:06:25;14.70;80.90
54938;DHT22;52756;52.826;6.214;2023-05-10T04:08:50;14.70;80.90
54938;DHT22;52756;52.826;6.214;2023-05-10T04:11:16;14.70;80.90
54938;DHT22;52756;52.826;6.214;2023-05-10T04:13:42;14.70;80.90
54938;DHT22;52756;52.826;6.214;2023-05-10T04:16:08;14.70;81.00
54938;DHT22;52756;52.826;6.214;2023-05-10T04:18:34;14.70;81.00
54938;DHT22;52756;52.826;6.214;2023-05-10T04:21:00;14.70;81.00
54938;DHT22;52756;52.826;6.214;2023-05-10T04:23:27;14.70;80.90
54938;DHT22;52756;52.826;6.214;2023-05-10T04:25:58;14.70;80.90
54938;DHT22;52756;52.826;6.214;2023-05-10T04:28:24;14.70;81.00
54938;DHT22;52756;52.826;6.214;2023-05-10T04:30:50;14.70;81.00
54938;DHT22;52756;52.826;6.214;2023-05-10T04:33:15;14.70;81.00
54938;DHT22;52756;52.826;6.214;2023-05-10T04:35:41;14.70;81.00
54938;DHT22;52756;52.826;6.214;2023-05-10T04:38:07;14.70;81.00
54938;DHT22;52756;52.826;6.214;2023-05-10T04:40:32;14.70;81.00
54938;DHT22;52756;52.826;6.214;2023-05-10T04:42:58;14.70;81.00
54938;DHT22;52756;52.826;6.214;2023-05-10T04:45:24;14.70;81.00
54938;DHT22;52756;52.826;6.214;2023-05-10T04:47:49;14.70;81.00
54938;DHT22;52756;52.826;6.214;2023-05-10T04:50:15;14.70;81.00
54938;DHT22;52756;52.826;6.214;2023-05-10T04:52:41;14.70;81.10
54938;DHT22;52756;52.826;6.214;2023-05-10T04:55:07;14.70;81.10
54938;DHT22;52756;52.826;6.214;2023-05-10T04:57:35;14.70;81.10
54938;DHT22;52756;52.826;6.214;2023-05-10T05:00:00;14.70;81.20
54938;DHT22;52756;52.826;6.214;2023-05-10T05:02:27;14.70;81.20
54938;DHT22;52756;52.826;6.214;2023-05-10T05:04:52;14.60;81.20
54938;DHT22;52756;52.826;6.214;2023-05-10T05:07:18;14.60;81.70
54938;DHT22;52756;52.826;6.214;2023-05-10T05:09:44;14.60;81.30
54938;DHT22;52756;52.826;6.214;2023-05-10T05:12:09;14.70;81.40
54938;DHT22;52756;52.826;6.214;2023-05-10T05:14:39;14.60;81.40
54938;DHT22;52756;52.826;6.214;2023-05-10T05:17:05;14.60;81.40
54938;DHT22;52756;52.826;6.214;2023-05-10T05:19:31;14.60;81.50
54938;DHT22;52756;52.826;6.214;2023-05-10T05:21:57;14.60;81.50
54938;DHT22;52756;52.826;6.214;2023-05-10T05:24:22;14.60;81.60
54938;DHT22;52756;52.826;6.214;2023-05-10T05:26:48;14.60;81.60
54938;DHT22;52756;52.826;6.214;2023-05-10T05:29:14;14.60;81.60
54938;DHT22;52756;52.826;6.214;2023-05-10T05:31:40;14.60;81.60
54938;DHT22;52756;52.826;6.214;2023-05-10T05:34:05;14.70;81.60
54938;DHT22;52756;52.826;6.214;2023-05-10T05:36:32;14.60;81.60
54938;DHT22;52756;52.826;6.214;2023-05-10T05:38:58;14.60;81.50
54938;DHT22;52756;52.826;6.214;2023-05-10T05:41:23;14.60;81.40
54938;DHT22;52756;52.826;6.214;2023-05-10T05:43:50;14.60;81.40
54938;DHT22;52756;52.826;6.214;2023-05-10T05:46:15;14.60;81.50
54938;DHT22;52756;52.826;6.214;2023-05-10T05:48:41;14.60;81.50
54938;DHT22;52756;52.826;6.214;2023-05-10T05:51:07;14.70;81.60
54938;DHT22;52756;52.826;6.214;2023-05-10T05:53:32;14.70;81.60
54938;DHT22;52756;52.826;6.214;2023-05-10T05:55:58;14.60;81.50
54938;DHT22;52756;52.826;6.214;2023-05-10T05:58:27;14.70;81.70
54938;DHT22;52756;52.826;6.214;2023-05-10T06:00:53;14.70;81.80
54938;DHT22;52756;52.826;6.214;2023-05-10T06:03:19;14.70;81.80
54938;DHT22;52756;52.826;6.214;2023-05-10T06:05:45;14.70;81.90
54938;DHT22;52756;52.826;6.214;2023-05-10T06:08:10;14.70;82.10
54938;DHT22;52756;52.826;6.214;2023-05-10T06:10:36;14.70;82.10
54938;DHT22;52756;52.826;6.214;2023-05-10T06:13:02;14.80;82.20
54938;DHT22;52756;52.826;6.214;2023-05-10T06:15:28;14.80;82.20
54938;DHT22;52756;52.826;6.214;2023-05-10T06:17:54;14.80;82.10
54938;DHT22;52756;52.826;6.214;2023-05-10T06:20:19;14.80;82.00
54938;DHT22;52756;52.826;6.214;2023-05-10T06:22:45;14.80;81.90
54938;DHT22;52756;52.826;6.214;2023-05-10T06:25:11;14.80;81.90
54938;DHT22;52756;52.826;6.214;2023-05-10T06:27:37;14.80;81.80
54938;DHT22;52756;52.826;6.214;2023-05-10T06:30:03;14.90;81.80
54938;DHT22;52756;52.826;6.214;2023-05-10T06:32:29;14.90;81.80
54938;DHT22;52756;52.826;6.214;2023-05-10T06:34:54;14.90;81.80
54938;DHT22;52756;52.826;6.214;2023-05-10T06:37:20;14.90;81.70
54938;DHT22;52756;52.826;6.214;2023-05-10T06:39:46;14.90;81.60
54938;DHT22;52756;52.826;6.214;2023-05-10T06:42:11;14.90;81.60
54938;DHT22;52756;52.826;6.214;2023-05-10T06:44:37;14.90;81.60
54938;DHT22;52756;52.826;6.214;2023-05-10T06:47:03;15.00;81.50
54938;DHT22;52756;52.826;6.214;2023-05-10T06:49:28;14.90;81.50
54938;DHT22;52756;52.826;6.214;2023-05-10T06:51:55;14.90;81.30
54938;DHT22;52756;52.826;6.214;2023-05-10T06:54:21;14.90;81.30
54938;DHT22;52756;52.826;6.214;2023-05-10T06:56:47;15.00;81.30
54938;DHT22;52756;52.826;6.214;2023-05-10T06:59:13;14.90;81.30
54938;DHT22;52756;52.826;6.214;2023-05-10T07:01:40;14.90;81.30
54938;DHT22;52756;52.826;6.214;2023-05-10T07:04:06;14.90;81.20
54938;DHT22;52756;52.826;6.214;2023-05-10T07:06:33;15.00;81.30
54938;DHT22;52756;52.826;6.214;2023-05-10T07:08:59;15.00;81.40
54938;DHT22;52756;52.826;6.214;2023-05-10T07:11:25;15.00;81.40
54938;DHT22;52756;52.826;6.214;2023-05-10T07:13:50;15.00;81.30
54938;DHT22;52756;52.826;6.214;2023-05-10T07:16:16;15.00;81.20
54938;DHT22;52756;52.826;6.214;2023-05-10T07:18:41;15.00;81.00
54938;DHT22;52756;52.826;6.214;2023-05-10T07:21:07;15.00;80.80
54938;DHT22;52756;52.826;6.214;2023-05-10T07:23:34;15.10;80.70
54938;DHT22;52756;52.826;6.214;2023-05-10T07:25:59;15.10;80.60
54938;DHT22;52756;52.826;6.214;2023-05-10T07:28:25;15.10;80.50
54938;DHT22;52756;52.826;6.214;2023-05-10T07:30:51;15.10;80.40
54938;DHT22;52756;52.826;6.214;2023-05-10T07:33:16;15.10;80.40
54938;DHT22;52756;52.826;6.214;2023-05-10T07:35:42;15.10;80.50
54938;DHT22;52756;52.826;6.214;2023-05-10T07:38:08;15.20;80.50
54938;DHT22;52756;52.826;6.214;2023-05-10T07:40:36;15.20;80.30
54938;DHT22;52756;52.826;6.214;2023-05-10T07:43:02;15.20;80.20
54938;DHT22;52756;52.826;6.214;2023-05-10T07:45:28;15.20;80.20
54938;DHT22;52756;52.826;6.214;2023-05-10T07:47:54;15.20;80.10
54938;DHT22;52756;52.826;6.214;2023-05-10T07:50:19;15.20;80.30
54938;DHT22;52756;52.826;6.214;2023-05-10T07:52:47;15.20;80.40
54938;DHT22;52756;52.826;6.214;2023-05-10T07:55:13;15.30;80.50
54938;DHT22;52756;52.826;6.214;2023-05-10T07:57:39;15.30;80.70
54938;DHT22;52756;52.826;6.214;2023-05-10T08:00:06;15.40;81.00
54938;DHT22;52756;52.826;6.214;2023-05-10T08:02:34;15.40;81.40
54938;DHT22;52756;52.826;6.214;2023-05-10T08:05:00;15.50;81.20
54938;DHT22;52756;52.826;6.214;2023-05-10T08:07:26;15.50;81.20
54938;DHT22;52756;52.826;6.214;2023-05-10T08:09:51;15.60;81.10
54938;DHT22;52756;52.826;6.214;2023-05-10T08:12:17;15.70;80.80
54938;DHT22;52756;52.826;6.214;2023-05-10T08:14:43;15.70;80.20
54938;DHT22;52756;52.826;6.214;2023-05-10T08:17:09;15.80;80.00
54938;DHT22;52756;52.826;6.214;2023-05-10T08:19:34;15.80;79.60
54938;DHT22;52756;52.826;6.214;2023-05-10T08:22:00;15.90;79.30
54938;DHT22;52756;52.826;6.214;2023-05-10T08:24:26;15.90;79.00
54938;DHT22;52756;52.826;6.214;2023-05-10T08:26:51;15.80;78.70
54938;DHT22;52756;52.826;6.214;2023-05-10T08:29:17;15.80;78.70
54938;DHT22;52756;52.826;6.214;2023-05-10T08:31:43;15.80;78.70
54938;DHT22;52756;52.826;6.214;2023-05-10T08:34:08;15.80;78.80
54938;DHT22;52756;52.826;6.214;2023-05-10T08:36:34;15.80;78.80
54938;DHT22;52756;52.826;6.214;2023-05-10T08:39:00;15.80;78.80
54938;DHT22;52756;52.826;6.214;2023-05-10T08:41:26;15.80;78.90
54938;DHT22;52756;52.826;6.214;2023-05-10T08:43:53;15.80;79.00
54938;DHT22;52756;52.826;6.214;2023-05-10T08:46:21;15.80;79.10
54938;DHT22;52756;52.826;6.214;2023-05-10T08:48:48;15.80;79.10
54938;DHT22;52756;52.826;6.214;2023-05-10T08:51:18;15.80;79.00
54938;DHT22;52756;52.826;6.214;2023-05-10T08:53:45;15.80;79.00
54938;DHT22;52756;52.826;6.214;2023-05-10T08:56:11;15.80;79.20
54938;DHT22;52756;52.826;6.214;2023-05-10T08:58:38;15.80;79.40
54938;DHT22;52756;52.826;6.214;2023-05-10T09:01:05;15.80;79.30
54938;DHT22;52756;52.826;6.214;2023-05-10T09:03:31;15.80;79.20
54938;DHT22;52756;52.826;6.214;2023-05-10T09:05:58;15.80;78.90
54938;DHT22;52756;52.826;6.214;2023-05-10T09:08:24;15.80;78.80
54938;DHT22;52756;52.826;6.214;2023-05-10T09:10:56;15.80;78.90
54938;DHT22;52756;52.826;6.214;2023-05-10T09:13:23;15.80;78.90
54938;DHT22;52756;52.826;6.214;2023-05-10T09:15:50;15.70;78.80
54938;DHT22;52756;52.826;6.214;2023-05-10T09:18:16;15.70;78.90
54938;DHT22;52756;52.826;6.214;2023-05-10T09:20:42;15.80;79.10
54938;DHT22;52756;52.826;6.214;2023-05-10T09:23:08;15.80;79.20
54938;DHT22;52756;52.826;6.214;2023-05-10T09:25:34;15.80;79.20
54938;DHT22;52756;52.826;6.214;2023-05-10T09:28:00;15.80;79.40
54938;DHT22;52756;52.826;6.214;2023-05-10T09:30:30;15.80;79.70
54938;DHT22;52756;52.826;6.214;2023-05-10T09:32:57;15.90;79.60
54938;DHT22;52756;52.826;6.214;2023-05-10T09:35:25;15.90;79.50
54938;DHT22;52756;52.826;6.214;2023-05-10T09:37:53;15.90;79.40
54938;DHT22;52756;52.826;6.214;2023-05-10T09:40:24;16.00;79.20
54938;DHT22;52756;52.826;6.214;2023-05-10T09:45:27;16.00;79.20
54938;DHT22;52756;52.826;6.214;2023-05-10T09:47:53;16.00;79.00
54938;DHT22;52756;52.826;6.214;2023-05-10T09:50:20;16.10;78.80
54938;DHT22;52756;52.826;6.214;2023-05-10T09:55:21;16.20;78.60
54938;DHT22;52756;52.826;6.214;2023-05-10T09:57:47;16.10;78.60
54938;DHT22;52756;52.826;6.214;2023-05-10T10:00:18;16.20;78.60
54938;DHT22;52756;52.826;6.214;2023-05-10T10:02:53;16.20;78.60
54938;DHT22;52756;52.826;6.214;2023-05-10T10:05:19;16.20;78.50
54938;DHT22;52756;52.826;6.214;2023-05-10T10:07:45;16.20;78.50
54938;DHT22;52756;52.826;6.214;2023-05-10T10:10:11;16.20;78.50
54938;DHT22;52756;52.826;6.214;2023-05-10T10:12:39;16.30;78.60
54938;DHT22;52756;52.826;6.214;2023-05-10T10:15:07;16.30;78.50
54938;DHT22;52756;52.826;6.214;2023-05-10T10:17:36;16.30;78.50
54938;DHT22;52756;52.826;6.214;2023-05-10T10:20:03;16.40;78.70
54938;DHT22;52756;52.826;6.214;2023-05-10T10:22:28;16.40;78.50
54938;DHT22;52756;52.826;6.214;2023-05-10T10:24:54;16.40;78.50
54938;DHT22;52756;52.826;6.214;2023-05-10T10:27:28;16.50;78.60
54938;DHT22;52756;52.826;6.214;2023-05-10T10:34:58;16.60;77.90
54938;DHT22;52756;52.826;6.214;2023-05-10T10:37:45;16.70;77.80
54938;DHT22;52756;52.826;6.214;2023-05-10T10:40:31;16.80;77.30
54938;DHT22;52756;52.826;6.214;2023-05-10T10:42:58;16.80;77.00
54938;DHT22;52756;52.826;6.214;2023-05-10T10:45:43;16.80;77.10
54938;DHT22;52756;52.826;6.214;2023-05-10T10:48:22;16.90;77.00
54938;DHT22;52756;52.826;6.214;2023-05-10T10:50:57;16.90;76.70
54938;DHT22;52756;52.826;6.214;2023-05-10T10:53:26;16.90;76.60
54938;DHT22;52756;52.826;6.214;2023-05-10T10:56:04;16.90;76.60
54938;DHT22;52756;52.826;6.214;2023-05-10T10:58:34;17.00;76.50
54938;DHT22;52756;52.826;6.214;2023-05-10T11:01:14;17.00;76.60
54938;DHT22;52756;52.826;6.214;2023-05-10T11:03:41;17.00;76.10
54938;DHT22;52756;52.826;6.214;2023-05-10T11:06:32;17.00;76.10
54938;DHT22;52756;52.826;6.214;2023-05-10T11:08:58;17.10;75.80
54938;DHT22;52756;52.826;6.214;2023-05-10T11:11:24;17.10;75.70
54938;DHT22;52756;52.826;6.214;2023-05-10T11:13:51;17.10;75.50
54938;DHT22;52756;52.826;6.214;2023-05-10T11:16:24;17.10;75.30
54938;DHT22;52756;52.826;6.214;2023-05-10T11:19:03;17.10;75.20
54938;DHT22;52756;52.826;6.214;2023-05-10T11:21:30;17.10;75.50
54938;DHT22;52756;52.826;6.214;2023-05-10T11:23:58;17.10;75.60
54938;DHT22;52756;52.826;6.214;2023-05-10T11:26:25;17.10;75.60
54938;DHT22;52756;52.826;6.214;2023-05-10T11:28:53;17.10;75.60
54938;DHT22;52756;52.826;6.214;2023-05-10T11:31:22;17.10;75.70
54938;DHT22;52756;52.826;6.214;2023-05-10T11:33:51;17.10;76.10
54938;DHT22;52756;52.826;6.214;2023-05-10T11:36:20;17.20;76.30
54938;DHT22;52756;52.826;6.214;2023-05-10T11:38:47;17.20;76.10
54938;DHT22;52756;52.826;6.214;2023-05-10T11:41:15;17.20;76.10
54938;DHT22;52756;52.826;6.214;2023-05-10T11:43:41;17.20;75.90
54938;DHT22;52756;52.826;6.214;2023-05-10T11:46:11;17.30;75.70
54938;DHT22;52756;52.826;6.214;2023-05-10T11:48:41;17.30;75.30
54938;DHT22;52756;52.826;6.214;2023-05-10T11:51:07;17.30;74.90
54938;DHT22;52756;52.826;6.214;2023-05-10T11:53:33;17.30;74.70
54938;DHT22;52756;52.826;6.214;2023-05-10T11:56:03;17.30;74.70
54938;DHT22;52756;52.826;6.214;2023-05-10T11:58:31;17.40;74.60
54938;DHT22;52756;52.826;6.214;2023-05-10T12:00:58;17.40;74.50
54938;DHT22;52756;52.826;6.214;2023-05-10T12:03:24;17.40;74.10
54938;DHT22;52756;52.826;6.214;2023-05-10T12:05:50;17.40;73.90
54938;DHT22;52756;52.826;6.214;2023-05-10T12:08:20;17.30;73.90
54938;DHT22;52756;52.826;6.214;2023-05-10T12:10:47;17.30;73.70
54938;DHT22;52756;52.826;6.214;2023-05-10T12:13:13;17.30;73.90
54938;DHT22;52756;52.826;6.214;2023-05-10T12:15:42;17.20;73.70
54938;DHT22;52756;52.826;6.214;2023-05-10T12:18:15;17.20;73.60
54938;DHT22;52756;52.826;6.214;2023-05-10T12:20:48;17.20;73.80
54938;DHT22;52756;52.826;6.214;2023-05-10T12:23:13;17.10;74.00
54938;DHT22;52756;52.826;6.214;2023-05-10T12:25:39;17.10;74.30
54938;DHT22;52756;52.826;6.214;2023-05-10T12:28:07;17.10;74.40
54938;DHT22;52756;52.826;6.214;2023-05-10T12:30:35;17.00;74.50
54938;DHT22;52756;52.826;6.214;2023-05-10T12:33:12;17.00;74.50
54938;DHT22;52756;52.826;6.214;2023-05-10T12:35:45;17.00;74.50
54938;DHT22;52756;52.826;6.214;2023-05-10T12:38:28;17.00;74.80
54938;DHT22;52756;52.826;6.214;2023-05-10T12:41:01;17.00;74.90
54938;DHT22;52756;52.826;6.214;2023-05-10T12:43:28;16.90;75.10
54938;DHT22;52756;52.826;6.214;2023-05-10T12:45:53;16.90;75.20
54938;DHT22;52756;52.826;6.214;2023-05-10T12:48:19;16.90;75.30
54938;DHT22;52756;52.826;6.214;2023-05-10T12:50:46;16.90;75.50
54938;DHT22;52756;52.826;6.214;2023-05-10T12:53:13;16.90;75.40
54938;DHT22;52756;52.826;6.214;2023-05-10T12:55:43;16.90;75.40
54938;DHT22;52756;52.826;6.214;2023-05-10T12:58:09;16.90;75.40
54938;DHT22;52756;52.826;6.214;2023-05-10T13:00:35;16.90;75.50
54938;DHT22;52756;52.826;6.214;2023-05-10T13:03:04;16.90;75.50
54938;DHT22;52756;52.826;6.214;2023-05-10T13:05:31;16.90;75.40
54938;DHT22;52756;52.826;6.214;2023-05-10T13:07:57;16.90;75.40
54938;DHT22;52756;52.826;6.214;2023-05-10T13:10:23;16.90;75.30
54938;DHT22;52756;52.826;6.214;2023-05-10T13:12:49;17.00;75.20
54938;DHT22;52756;52.826;6.214;2023-05-10T13:15:15;17.00;75.10
54938;DHT22;52756;52.826;6.214;2023-05-10T13:17:40;17.00;75.10
54938;DHT22;52756;52.826;6.214;2023-05-10T13:20:08;17.00;75.10
54938;DHT22;52756;52.826;6.214;2023-05-10T13:22:35;17.00;75.00
54938;DHT22;52756;52.826;6.214;2023-05-10T13:25:01;17.10;75.00
54938;DHT22;52756;52.826;6.214;2023-05-10T13:27:27;17.10;74.80
54938;DHT22;52756;52.826;6.214;2023-05-10T13:29:53;17.10;74.70
54938;DHT22;52756;52.826;6.214;2023-05-10T13:32:19;17.10;74.50
54938;DHT22;52756;52.826;6.214;2023-05-10T13:34:44;17.10;74.50
54938;DHT22;52756;52.826;6.214;2023-05-10T13:37:10;17.10;73.90
54938;DHT22;52756;52.826;6.214;2023-05-10T13:39:36;17.10;73.60
54938;DHT22;52756;52.826;6.214;2023-05-10T13:42:03;17.10;73.80
54938;DHT22;52756;52.826;6.214;2023-05-10T13:44:29;17.00;74.20
54938;DHT22;52756;52.826;6.214;2023-05-10T13:46:56;17.00;74.40
54938;DHT22;52756;52.826;6.214;2023-05-10T13:49:21;17.00;74.60
54938;DHT22;52756;52.826;6.214;2023-05-10T13:51:47;17.10;74.60
54938;DHT22;52756;52.826;6.214;2023-05-10T13:54:13;17.10;74.70
54938;DHT22;52756;52.826;6.214;2023-05-10T13:56:39;17.10;74.80
54938;DHT22;52756;52.826;6.214;2023-05-10T13:59:06;17.10;74.60
54938;DHT22;52756;52.826;6.214;2023-05-10T14:01:33;17.10;74.40
54938;DHT22;52756;52.826;6.214;2023-05-10T14:03:59;17.20;74.40
54938;DHT22;52756;52.826;6.214;2023-05-10T14:06:25;17.20;73.90
54938;DHT22;52756;52.826;6.214;2023-05-10T14:08:52;17.20;73.70
54938;DHT22;52756;52.826;6.214;2023-05-10T14:11:19;17.30;73.70
54938;DHT22;52756;52.826;6.214;2023-05-10T14:13:45;17.30;73.80
54938;DHT22;52756;52.826;6.214;2023-05-10T14:16:10;17.40;73.90
54938;DHT22;52756;52.826;6.214;2023-05-10T14:18:37;17.40;73.30
54938;DHT22;52756;52.826;6.214;2023-05-10T14:21:03;17.50;73.00
54938;DHT22;52756;52.826;6.214;2023-05-10T14:23:29;17.50;72.80
54938;DHT22;52756;52.826;6.214;2023-05-10T14:25:55;17.60;72.70
54938;DHT22;52756;52.826;6.214;2023-05-10T14:28:21;17.60;72.40
54938;DHT22;52756;52.826;6.214;2023-05-10T14:30:49;17.70;72.40
54938;DHT22;52756;52.826;6.214;2023-05-10T14:33:16;17.70;72.30
54938;DHT22;52756;52.826;6.214;2023-05-10T14:35:41;17.70;72.10
54938;DHT22;52756;52.826;6.214;2023-05-10T14:38:07;17.80;72.10
54938;DHT22;52756;52.826;6.214;2023-05-10T14:40:33;17.80;71.70
54938;DHT22;52756;52.826;6.214;2023-05-10T14:42:59;17.80;70.90
54938;DHT22;52756;52.826;6.214;2023-05-10T14:45:24;17.80;70.10
54938;DHT22;52756;52.826;6.214;2023-05-10T14:47:50;17.80;69.40
54938;DHT22;52756;52.826;6.214;2023-05-10T14:50:16;17.80;69.40
54938;DHT22;52756;52.826;6.214;2023-05-10T14:52:43;17.90;69.60
54938;DHT22;52756;52.826;6.214;2023-05-10T14:55:09;17.90;69.50
54938;DHT22;52756;52.826;6.214;2023-05-10T14:57:35;17.90;69.50
54938;DHT22;52756;52.826;6.214;2023-05-10T15:00:02;17.90;69.30
54938;DHT22;52756;52.826;6.214;2023-05-10T15:02:28;17.90;69.20
54938;DHT22;52756;52.826;6.214;2023-05-10T15:04:53;17.90;69.10
54938;DHT22;52756;52.826;6.214;2023-05-10T15:07:19;17.90;69.10
54938;DHT22;52756;52.826;6.214;2023-05-10T15:09:45;17.90;69.00
54938;DHT22;52756;52.826;6.214;2023-05-10T15:12:11;17.90;68.50
54938;DHT22;52756;52.826;6.214;2023-05-10T15:14:37;17.90;68.20
54938;DHT22;52756;52.826;6.214;2023-05-10T15:17:02;17.90;67.80
54938;DHT22;52756;52.826;6.214;2023-05-10T15:19:28;17.90;67.60
54938;DHT22;52756;52.826;6.214;2023-05-10T15:21:55;18.00;67.70
54938;DHT22;52756;52.826;6.214;2023-05-10T15:24:21;18.00;67.50
54938;DHT22;52756;52.826;6.214;2023-05-10T15:26:47;18.00;67.70
54938;DHT22;52756;52.826;6.214;2023-05-10T15:29:13;18.00;67.60
54938;DHT22;52756;52.826;6.214;2023-05-10T15:31:48;18.00;67.30
54938;DHT22;52756;52.826;6.214;2023-05-10T15:34:14;18.10;67.70
54938;DHT22;52756;52.826;6.214;2023-05-10T15:36:40;18.10;68.00
54938;DHT22;52756;52.826;6.214;2023-05-10T15:39:06;18.10;67.70
54938;DHT22;52756;52.826;6.214;2023-05-10T15:41:31;18.10;67.50
54938;DHT22;52756;52.826;6.214;2023-05-10T15:43:58;18.10;66.70
54938;DHT22;52756;52.826;6.214;2023-05-10T15:46:28;18.20;66.20
54938;DHT22;52756;52.826;6.214;2023-05-10T15:48:54;18.20;66.00
54938;DHT22;52756;52.826;6.214;2023-05-10T15:51:19;18.20;65.90
54938;DHT22;52756;52.826;6.214;2023-05-10T15:53:45;18.20;65.80
54938;DHT22;52756;52.826;6.214;2023-05-10T15:56:11;18.20;66.20